createdAt,value
2023-02-09T01:13:33.977Z,-8.28
2023-02-09T01:16:07.923Z,-8.04
2023-02-09T01:18:35.013Z,-8.07
2023-02-09T01:21:02.638Z,-8.12
2023-02-09T01:23:29.541Z,-8.16
2023-02-09T01:26:07.286Z,-8.19
2023-02-09T01:28:34.991Z,-8.25
2023-02-09T01:31:04.410Z,-8.28
2023-02-09T01:33:32.573Z,-8.30
2023-02-09T01:36:02.912Z,-8.32
2023-02-09T01:38:29.862Z,-8.34
2023-02-09T01:40:56.927Z,-8.35
2023-02-09T01:43:23.614Z,-8.36
2023-02-09T01:45:54.042Z,-8.40
2023-02-09T01:48:25.442Z,-8.43
2023-02-09T01:50:54.571Z,-8.45
2023-02-09T01:53:21.274Z,-8.50
2023-02-09T01:55:55.902Z,-8.52
2023-02-09T01:58:22.727Z,-8.56
2023-02-09T02:00:49.409Z,-8.59
2023-02-09T02:03:19.381Z,-8.62
2023-02-09T02:05:47.932Z,-8.65
2023-02-09T02:08:27.996Z,-8.69
2023-02-09T02:10:55.988Z,-8.72
2023-02-09T02:13:22.711Z,-8.76
2023-02-09T02:16:04.521Z,-8.80
2023-02-09T02:18:49.822Z,-8.82
2023-02-09T02:21:47.283Z,-8.87
2023-02-09T02:24:39.280Z,-8.89
2023-02-09T02:27:34.330Z,-8.90
2023-02-09T02:30:12.725Z,-8.90
2023-02-09T02:32:42.799Z,-8.92
2023-02-09T02:35:21.552Z,-8.93
2023-02-09T02:37:51.720Z,-8.97
2023-02-09T02:41:06.880Z,-8.98
2023-02-09T02:43:55.346Z,-8.96
2023-02-09T02:46:32.852Z,-8.96
2023-02-09T02:49:08.334Z,-8.97
2023-02-09T02:51:39.730Z,-8.98
2023-02-09T02:54:12.999Z,-8.98
2023-02-09T02:56:44.235Z,-8.98
2023-02-09T02:59:13.029Z,-8.99
2023-02-09T03:01:49.513Z,-8.99
2023-02-09T03:04:17.544Z,-9.00
2023-02-09T03:06:44.499Z,-9.01
2023-02-09T03:09:11.199Z,-9.07
2023-02-09T03:11:51.613Z,-9.13
2023-02-09T03:14:42.546Z,-9.19
2023-02-09T03:17:28.302Z,-9.19
2023-02-09T03:20:10.643Z,-9.19
2023-02-09T03:22:39.470Z,-9.19
2023-02-09T03:25:15.499Z,-9.17
2023-02-09T03:28:08.123Z,-9.15
2023-02-09T03:30:35.288Z,-9.15
2023-02-09T03:33:03.295Z,-9.12
2023-02-09T03:35:35.445Z,-9.08
2023-02-09T03:38:06.223Z,-9.03
2023-02-09T03:40:34.037Z,-9.00
2023-02-09T03:43:00.758Z,-8.99
2023-02-09T03:45:28.572Z,-9.02
2023-02-09T03:47:56.031Z,-9.02
2023-02-09T03:50:23.172Z,-9.02
2023-02-09T03:52:50.167Z,-9.03
2023-02-09T03:55:16.900Z,-9.04
2023-02-09T03:57:43.948Z,-9.05
2023-02-09T04:00:12.289Z,-9.08
2023-02-09T04:02:39.027Z,-9.09
2023-02-09T04:05:06.253Z,-9.09
2023-02-09T04:07:34.610Z,-9.10
2023-02-09T04:10:01.872Z,-9.10
2023-02-09T04:12:29.016Z,-9.16
2023-02-09T04:14:56.637Z,-9.20
2023-02-09T04:17:23.341Z,-9.24
2023-02-09T04:19:50.222Z,-9.32
2023-02-09T04:22:18.028Z,-9.38
2023-02-09T04:24:44.990Z,-9.43
2023-02-09T04:27:12.525Z,-9.46
2023-02-09T04:29:39.243Z,-9.52
2023-02-09T04:32:06.194Z,-9.61
2023-02-09T04:34:33.153Z,-9.68
2023-02-09T04:37:01.280Z,-9.70
2023-02-09T04:39:28.316Z,-9.73
2023-02-09T04:41:56.610Z,-9.77
2023-02-09T04:44:23.763Z,-9.79
2023-02-09T04:46:50.485Z,-9.81
2023-02-09T04:49:17.328Z,-9.82
2023-02-09T04:51:44.468Z,-9.77
2023-02-09T04:54:11.889Z,-9.70
2023-02-09T04:56:43.426Z,-9.65
2023-02-09T04:59:28.615Z,-9.62
2023-02-09T05:01:56.692Z,-9.65
2023-02-09T05:04:23.699Z,-9.69
2023-02-09T05:06:50.438Z,-9.74
2023-02-09T05:09:17.320Z,-9.80
2023-02-09T05:11:44.172Z,-9.89
2023-02-09T05:14:11.116Z,-9.98
2023-02-09T05:16:39.319Z,-10.06
2023-02-09T05:19:06.556Z,-10.12
2023-02-09T05:21:33.593Z,-10.16
2023-02-09T05:24:00.452Z,-10.18
2023-02-09T05:26:27.505Z,-10.19
2023-02-09T05:28:54.390Z,-10.17
2023-02-09T05:31:25.617Z,-10.14
2023-02-09T05:33:53.418Z,-10.14
2023-02-09T05:36:20.199Z,-10.12
2023-02-09T05:38:47.445Z,-10.12
2023-02-09T05:41:36.894Z,-10.13
2023-02-09T05:44:04.033Z,-10.11
2023-02-09T05:46:30.920Z,-10.10
2023-02-09T05:48:57.858Z,-10.03
2023-02-09T05:51:24.805Z,-9.95
2023-02-09T05:53:53.106Z,-9.87
2023-02-09T05:56:20.486Z,-9.75
2023-02-09T05:58:47.147Z,-9.66
2023-02-09T06:01:13.875Z,-9.55
2023-02-09T06:03:41.019Z,-9.48
2023-02-09T06:06:07.791Z,-9.43
2023-02-09T06:08:36.052Z,-9.41
2023-02-09T06:11:05.470Z,-9.38
2023-02-09T06:13:34.621Z,-9.34
2023-02-09T06:16:01.392Z,-9.34
2023-02-09T06:18:28.286Z,-9.32
2023-02-09T06:20:54.979Z,-9.30
2023-02-09T06:23:21.857Z,-9.26
2023-02-09T06:25:52.475Z,-9.28
2023-02-09T06:28:19.952Z,-9.33
2023-02-09T06:30:51.634Z,-9.33
2023-02-09T06:33:19.052Z,-9.30
2023-02-09T06:35:52.028Z,-9.29
2023-02-09T06:38:19.123Z,-9.24
2023-02-09T06:40:46.666Z,-9.18
2023-02-09T06:43:14.086Z,-9.14
2023-02-09T06:45:41.018Z,-9.09
2023-02-09T06:48:08.405Z,-9.01
2023-02-09T06:50:36.018Z,-8.89
2023-02-09T06:53:03.724Z,-8.79
2023-02-09T06:55:31.032Z,-8.70
2023-02-09T06:57:57.934Z,-8.64
2023-02-09T07:00:24.879Z,-8.58
2023-02-09T07:02:52.584Z,-8.52
2023-02-09T07:05:19.401Z,-8.41
2023-02-09T07:07:46.142Z,-8.27
2023-02-09T07:10:14.592Z,-8.12
2023-02-09T07:12:42.874Z,-8.01
2023-02-09T07:15:10.040Z,-7.93
2023-02-09T07:17:39.311Z,-7.85
2023-02-09T10:54:21.766Z,2.40
2023-02-09T10:56:50.202Z,2.87
2023-02-09T10:59:20.585Z,3.39
2023-02-09T11:02:00.099Z,3.85
2023-02-09T11:04:39.865Z,4.14
2023-02-09T11:07:13.708Z,4.50
2023-02-09T11:09:46.817Z,4.61
2023-02-09T11:12:15.368Z,4.48
2023-02-09T11:14:46.105Z,4.35
2023-02-09T11:17:23.380Z,4.49
2023-02-09T11:20:15.780Z,4.63
2023-02-09T11:22:51.293Z,4.35
2023-02-09T11:25:25.570Z,4.19
2023-02-09T11:28:10.160Z,4.22
2023-02-09T11:30:49.314Z,4.09
2023-02-09T11:33:59.487Z,4.12
2023-02-09T11:36:50.926Z,3.99
2023-02-09T11:39:32.040Z,3.96
2023-02-09T11:42:28.804Z,3.86
2023-02-09T11:45:02.756Z,3.78
2023-02-09T11:47:47.544Z,4.02
2023-02-09T11:50:39.018Z,4.32
2023-02-09T11:53:35.099Z,4.31
2023-02-09T11:56:05.471Z,4.12
2023-02-09T11:58:45.286Z,4.00
2023-02-09T12:01:42.255Z,4.00
2023-02-09T12:04:29.281Z,4.12
2023-02-09T12:07:00.163Z,4.02
2023-02-09T12:09:33.471Z,3.93
2023-02-09T12:12:06.689Z,3.75
2023-02-09T12:14:52.449Z,3.87
2023-02-09T12:17:23.817Z,4.41
2023-02-09T12:19:58.162Z,4.61
2023-02-09T12:22:36.023Z,4.45
2023-02-09T12:25:05.057Z,4.08
2023-02-09T12:27:33.866Z,4.27
2023-02-09T12:30:40.501Z,4.19
2023-02-09T12:33:24.412Z,4.02
2023-02-09T12:36:08.634Z,3.81
2023-02-09T12:38:52.955Z,3.42
2023-02-09T12:41:28.344Z,3.10
2023-02-09T12:44:06.184Z,2.71
2023-02-09T12:46:55.758Z,2.45
2023-02-09T12:49:27.302Z,2.42
2023-02-09T12:52:01.720Z,2.19
2023-02-09T12:54:52.965Z,1.66
2023-02-09T12:57:22.374Z,1.29
2023-02-09T12:59:58.171Z,0.95
2023-02-09T13:02:51.042Z,0.90
2023-02-09T13:05:25.105Z,0.88
2023-02-09T13:08:02.669Z,0.98
2023-02-09T13:10:36.257Z,1.10
2023-02-09T13:13:11.551Z,1.12
2023-02-09T13:16:05.020Z,1.08
2023-02-09T13:18:46.351Z,0.88
2023-02-09T13:21:36.382Z,0.93
2023-02-09T13:24:09.546Z,1.17
2023-02-09T13:26:55.963Z,1.33
2023-02-09T13:29:29.095Z,1.33
2023-02-09T13:32:13.001Z,1.37
2023-02-09T13:34:46.824Z,1.40
2023-02-09T13:37:42.560Z,1.42
2023-02-09T13:40:18.465Z,1.38
2023-02-09T13:43:09.910Z,1.45
2023-02-09T13:45:52.091Z,1.58
2023-02-09T13:48:23.963Z,1.43
2023-02-09T13:50:55.360Z,1.16
2023-02-09T13:53:24.986Z,0.86
2023-02-09T13:55:54.053Z,0.59
2023-02-09T13:58:23.279Z,0.39
2023-02-09T14:00:52.056Z,0.21
2023-02-09T14:03:22.620Z,0.01
2023-02-09T14:06:01.897Z,0.00
2023-02-09T14:08:32.871Z,0.11
2023-02-09T14:11:19.169Z,0.12
2023-02-09T14:13:49.854Z,0.01
2023-02-09T14:16:18.850Z,-0.09
2023-02-09T14:18:51.413Z,-0.17
2023-02-09T14:21:20.967Z,-0.23
2023-02-09T14:24:01.792Z,-0.28
2023-02-09T14:26:34.221Z,-0.34
2023-02-09T14:29:02.446Z,-0.45
2023-02-09T14:31:37.769Z,-0.69
2023-02-09T14:34:21.673Z,-0.93
2023-02-09T14:36:52.122Z,-1.01
2023-02-09T14:39:21.231Z,-1.02
2023-02-09T14:42:18.232Z,-1.12
2023-02-09T14:44:57.397Z,-1.39
2023-02-09T14:47:35.010Z,-1.63
2023-02-09T14:50:03.201Z,-1.78
2023-02-09T14:52:33.338Z,-1.93
2023-02-09T14:55:05.735Z,-2.03
2023-02-09T14:57:36.279Z,-2.14
2023-02-09T15:00:21.966Z,-2.23
2023-02-09T15:02:50.919Z,-2.31
2023-02-09T15:05:19.736Z,-2.40
2023-02-09T15:07:59.590Z,-2.49
2023-02-09T15:10:32.868Z,-2.57
2023-02-09T15:13:05.428Z,-2.64
2023-02-09T15:15:37.778Z,-2.70
2023-02-09T15:18:21.413Z,-2.77
2023-02-09T15:20:49.561Z,-2.84
2023-02-09T15:23:18.044Z,-2.90
2023-02-09T15:25:46.454Z,-2.95
2023-02-09T15:28:28.888Z,-3.00
2023-02-09T15:30:58.402Z,-3.04
2023-02-09T15:33:27.210Z,-3.08
2023-02-09T15:35:58.957Z,-3.12
2023-02-09T15:38:28.331Z,-3.16
2023-02-09T15:41:15.337Z,-3.19
2023-02-09T15:44:01.951Z,-3.20
2023-02-09T15:46:49.093Z,-3.25
2023-02-09T15:49:17.367Z,-3.30
2023-02-09T15:51:48.292Z,-3.37
2023-02-09T15:54:20.798Z,-3.43
2023-02-09T15:56:49.816Z,-3.47
2023-02-09T15:59:19.586Z,-3.52
2023-02-09T16:01:48.671Z,-3.57
2023-02-09T16:04:16.835Z,-3.61
2023-02-09T16:06:48.628Z,-3.67
2023-02-09T19:23:00.036Z,-5.17
2023-02-09T19:25:29.481Z,-5.04
2023-02-09T19:27:58.513Z,-5.05
2023-02-09T19:30:28.676Z,-5.07
2023-02-09T19:33:00.296Z,-5.08
2023-02-09T19:35:29.472Z,-5.11
2023-02-09T19:37:58.495Z,-5.13
2023-02-09T19:40:36.218Z,-5.15
2023-02-09T19:43:06.073Z,-5.20
2023-02-09T19:45:40.844Z,-5.20
2023-02-09T19:48:09.547Z,-5.20
2023-02-09T19:50:43.177Z,-5.21
2023-02-09T19:53:11.551Z,-5.24
2023-02-09T19:55:41.429Z,-5.23
2023-02-09T19:58:11.484Z,-5.23
2023-02-09T20:00:40.755Z,-5.23
2023-02-09T20:03:09.136Z,-5.24
2023-02-09T20:05:44.411Z,-5.25
2023-02-09T20:08:20.491Z,-5.28
2023-02-09T20:10:53.765Z,-5.32
2023-02-09T20:16:06.622Z,-5.40
2023-02-09T20:18:40.907Z,-5.45
2023-02-09T20:21:12.348Z,-5.50
2023-02-09T20:23:41.324Z,-5.53
2023-02-09T20:26:18.740Z,-5.56
2023-02-09T20:28:46.926Z,-5.58
2023-02-09T20:31:22.428Z,-5.61
2023-02-09T20:33:50.819Z,-5.66
2023-02-09T20:36:18.949Z,-5.68
2023-02-09T20:38:48.875Z,-5.68
2023-02-09T20:41:17.709Z,-5.67
2023-02-09T20:44:04.973Z,-5.66
2023-02-09T20:46:55.687Z,-5.66
2023-02-09T20:49:31.406Z,-5.66
2023-02-09T20:51:59.520Z,-5.68
2023-02-09T20:54:27.737Z,-5.68
2023-02-09T20:56:55.728Z,-5.66
2023-02-09T20:59:24.463Z,-5.67
2023-02-09T21:01:52.864Z,-5.67
2023-02-09T21:04:20.960Z,-5.68
2023-02-09T21:06:49.174Z,-5.68
2023-02-09T21:09:17.250Z,-5.70
2023-02-09T21:11:48.228Z,-5.72
2023-02-09T21:14:27.241Z,-5.73
2023-02-09T21:17:03.354Z,-5.71
2023-02-09T21:19:33.715Z,-5.73
2023-02-09T21:22:02.402Z,-5.76
2023-02-09T21:24:30.886Z,-5.78
2023-02-09T21:27:00.869Z,-5.82
2023-02-09T21:29:29.341Z,-5.86
2023-02-09T21:32:01.087Z,-5.88
2023-02-09T21:34:29.631Z,-5.94
2023-02-09T21:36:58.107Z,-5.95
2023-02-09T21:39:26.190Z,-5.93
2023-02-09T21:42:13.315Z,-5.92
2023-02-09T21:44:42.059Z,-5.88
2023-02-09T21:47:10.684Z,-5.88
2023-02-09T21:49:38.851Z,-5.88
2023-02-09T21:52:07.437Z,-5.89
2023-02-09T21:54:35.669Z,-5.88
2023-02-09T21:57:03.923Z,-5.89
2023-02-09T21:59:31.925Z,-5.92
2023-02-09T22:02:00.047Z,-5.96
2023-02-09T22:04:28.221Z,-5.97
2023-02-09T22:06:57.194Z,-5.97
2023-02-09T22:09:28.115Z,-5.96
2023-02-09T22:11:56.239Z,-5.94
2023-02-09T22:14:24.325Z,-5.91
2023-02-09T22:16:53.725Z,-5.88
2023-02-09T22:19:22.848Z,-5.88
2023-02-09T22:21:51.246Z,-5.88
2023-02-09T22:24:19.458Z,-5.90
2023-02-09T22:26:48.898Z,-5.91
2023-02-09T22:29:17.156Z,-5.89
2023-02-09T22:31:45.889Z,-5.91
2023-02-09T22:34:13.949Z,-5.92
2023-02-09T22:36:42.943Z,-5.94
2023-02-09T22:39:11.068Z,-5.97
2023-02-09T22:41:39.095Z,-5.99
2023-02-09T22:44:10.138Z,-6.02
2023-02-09T22:46:39.456Z,-6.04
2023-02-09T22:49:09.375Z,-6.06
2023-02-09T22:51:37.982Z,-6.10
2023-02-09T22:54:06.187Z,-6.14
2023-02-09T22:56:34.333Z,-6.17
2023-02-09T22:59:02.391Z,-6.18
2023-02-09T23:01:30.654Z,-6.20
2023-02-09T23:03:59.040Z,-6.25
2023-02-09T23:06:28.105Z,-6.26
2023-02-09T23:09:00.243Z,-6.27
2023-02-09T23:11:28.935Z,-6.28
2023-02-09T23:14:11.909Z,-6.29
2023-02-09T23:16:40.933Z,-6.30
2023-02-09T23:19:11.174Z,-6.31
2023-02-09T23:21:41.596Z,-6.33
2023-02-09T23:24:10.012Z,-6.36
2023-02-09T23:26:38.542Z,-6.37
2023-02-09T23:29:08.434Z,-6.37
2023-02-09T23:31:36.802Z,-6.35
2023-02-09T23:34:05.188Z,-6.28
2023-02-09T23:36:35.250Z,-6.24
2023-02-09T23:39:05.005Z,-6.21
2023-02-09T23:41:34.895Z,-6.16
2023-02-09T23:44:04.678Z,-6.15
2023-02-09T23:46:33.099Z,-6.16
2023-02-09T23:49:01.309Z,-6.18
2023-02-09T23:51:31.678Z,-6.17
2023-02-09T23:54:00.678Z,-6.18
2023-02-09T23:56:30.043Z,-6.19
2023-02-09T23:58:58.208Z,-6.22
